Time;durP1;ratioP1;P1;durP2;ratioP2;P2;SDS_P1;SDS_P2;PMS_P1;PMS_P2;Temp;Humidity;BMP_temperature;BMP_pressure;BME280_temperature;BME280_humidity;BME280_pressure;Samples;Min_cycle;Max_cycle;Signal;HPM_P1;HPM_P2
2024/03/27 18:00:37;;;;;;;24.60;6.80;;;;;;;20.35;48.31;98070.67;2445968;72;27669;-79
2024/03/27 18:03:39;;;;;;;20.75;6.78;;;;;;;20.35;48.33;98073.36;2409089;73;51251;-80
2024/03/27 18:06:44;;;;;;;22.05;7.40;;;;;;;20.39;48.43;98071.76;2337268;75;50227;-81
2024/03/27 18:09:45;;;;;;;14.15;6.70;;;;;;;20.43;48.38;98076.91;2337555;75;22278;-80
2024/03/27 18:12:48;;;;;;;19.57;6.87;;;;;;;20.50;48.33;98083.38;2337052;75;51308;-81
2024/03/27 18:15:50;;;;;;;16.80;6.45;;;;;;;20.57;48.21;98079.97;2372098;74;52017;-80
2024/03/27 18:18:52;;;;;;;21.12;6.70;;;;;;;20.63;48.14;98073.05;2337373;75;49940;-80
2024/03/27 18:21:54;;;;;;;19.87;6.78;;;;;;;20.69;48.04;98069.05;2337683;75;49980;-80
2024/03/27 18:24:57;;;;;;;16.35;6.58;;;;;;;20.74;47.82;98072.56;2373009;74;51415;-82
2024/03/27 18:27:59;;;;;;;17.05;6.45;;;;;;;20.79;47.54;98068.56;2372712;75;50591;-80
2024/03/27 18:31:01;;;;;;;19.07;6.30;;;;;;;20.82;47.36;98069.92;2372582;75;51945;-80
2024/03/27 18:34:03;;;;;;;13.48;6.25;;;;;;;20.86;47.24;98061.09;2372357;74;50670;-80
2024/03/27 18:37:09;;;;;;;12.25;5.85;;;;;;;20.88;47.09;98058.12;2336016;75;50880;-80
2024/03/27 18:40:10;;;;;;;12.63;5.97;;;;;;;20.91;46.91;98057.62;2371974;75;22378;-80
2024/03/27 18:43:13;;;;;;;14.68;6.25;;;;;;;20.95;46.77;98051.97;2335342;75;51586;-80
2024/03/27 18:46:15;;;;;;;19.17;5.90;;;;;;;20.96;46.74;98049.58;2302291;75;49410;-80
2024/03/27 18:49:17;;;;;;;12.15;6.05;;;;;;;20.95;46.72;98051.97;2371898;75;50589;-80
2024/03/27 18:52:19;;;;;;;14.95;5.72;;;;;;;20.99;46.63;98045.53;2371827;75;51386;-81
2024/03/27 18:55:21;;;;;;;18.37;6.03;;;;;;;20.98;46.65;98045.27;2371694;74;50675;-80
2024/03/27 18:58:24;;;;;;;15.13;5.70;;;;;;;21.00;46.61;98041.78;2371877;75;51322;-80
2024/03/27 19:01:26;;;;;;;11.18;5.30;;;;;;;20.99;46.63;98040.98;2336617;75;50131;-79
2024/03/27 19:04:28;;;;;;;12.68;5.83;;;;;;;20.99;46.62;98044.19;2371821;74;50305;-80
2024/03/27 19:07:30;;;;;;;15.23;5.35;;;;;;;20.99;46.68;98049.05;2336279;75;50313;-79
2024/03/27 19:10:32;;;;;;;17.27;5.65;;;;;;;20.99;46.69;98051.73;2335857;75;51787;-80
2024/03/27 19:13:35;;;;;;;20.62;5.72;;;;;;;20.99;46.66;98049.05;2370953;74;51430;-80
2024/03/27 19:16:37;;;;;;;15.08;5.80;;;;;;;20.98;46.64;98056.02;2370729;75;51403;-80
2024/03/27 19:19:39;;;;;;;11.03;5.20;;;;;;;21.01;46.52;98053.61;2370707;75;51419;-80
2024/03/27 19:22:41;;;;;;;14.40;6.03;;;;;;;21.00;46.59;98056.03;2370735;75;51474;-80
2024/03/27 19:25:44;;;;;;;13.48;5.72;;;;;;;21.00;46.61;98054.69;2335209;75;50910;-80
2024/03/27 19:28:46;;;;;;;15.72;5.60;;;;;;;21.00;46.62;98054.69;2335613;75;50623;-80
2024/03/27 19:31:48;;;;;;;10.30;5.00;;;;;;;21.00;46.61;98061.95;2335919;75;51217;-80
2024/03/27 19:34:50;;;;;;;12.55;5.35;;;;;;;20.99;46.64;98053.08;2308425;75;52439;-81
2024/03/27 19:37:53;;;;;;;18.30;5.90;;;;;;;21.00;46.61;98046.62;2335603;75;51366;-81
2024/03/27 19:40:55;;;;;;;15.48;5.95;;;;;;;20.99;46.58;98039.64;2370941;75;50380;-79
2024/03/27 19:43:57;;;;;;;18.75;5.78;;;;;;;21.01;46.59;98046.08;2334575;74;50580;-81
2024/03/27 19:46:59;;;;;;;11.08;5.00;;;;;;;21.00;46.72;98047.97;2370557;75;51483;-82
2024/03/27 19:50:02;;;;;;;29.42;5.50;;;;;;;21.00;46.75;98054.69;2334286;75;50939;-80
2024/03/27 19:53:04;;;;;;;14.75;5.70;;;;;;;21.02;46.63;98063.31;2369389;75;50825;-80
2024/03/27 19:56:07;;;;;;;26.82;6.28;;;;;;;21.03;46.63;98038.57;2369343;74;50353;-80
2024/03/27 19:59:09;;;;;;;16.27;6.25;;;;;;;21.02;46.62;98024.33;2305882;75;50907;-80
2024/03/27 20:02:11;;;;;;;18.48;5.47;;;;;;;21.02;46.65;98021.64;2329019;75;50282;-80
2024/03/27 20:05:13;;;;;;;30.05;7.05;;;;;;;21.02;46.87;98025.67;2353758;74;50491;-81
2024/03/27 20:08:16;;;;;;;22.98;5.75;;;;;;;21.02;46.93;98027.02;2314288;76;51912;-82
2024/03/27 20:11:18;;;;;;;19.55;5.67;;;;;;;21.08;46.90;98031.87;2302696;75;51988;-81
2024/03/27 20:14:21;;;;;;;20.77;5.62;;;;;;;21.10;46.87;98023.02;2303474;75;49404;-82
2024/03/27 20:17:23;;;;;;;18.30;6.03;;;;;;;21.07;46.96;98027.58;2328937;75;52127;-81
2024/03/27 20:20:25;;;;;;;17.62;6.17;;;;;;;21.06;47.11;98028.09;2354101;74;50811;-81
2024/03/27 20:23:27;;;;;;;18.67;6.17;;;;;;;21.08;47.35;98024.60;2341941;74;51392;-80
2024/03/27 20:26:30;;;;;;;22.02;7.40;;;;;;;21.09;47.68;98028.93;2342874;74;51389;-80
2024/03/27 20:29:32;;;;;;;21.05;6.00;;;;;;;21.20;49.86;98023.05;2332123;74;50279;-81
2024/03/27 20:32:35;;;;;;;18.55;6.20;;;;;;;21.22;48.40;98019.56;2313176;75;50259;-80
2024/03/27 20:35:38;;;;;;;19.45;6.05;;;;;;;21.23;48.17;98009.61;2329263;75;51417;-80
2024/03/27 20:38:40;;;;;;;19.20;6.60;;;;;;;21.23;47.89;98002.89;2303669;75;52947;-81
2024/03/27 20:41:42;;;;;;;21.80;6.35;;;;;;;21.25;47.71;97995.37;2354677;75;52107;-79
2024/03/27 20:44:46;;;;;;;26.27;6.20;;;;;;;21.25;47.57;97994.82;2354904;75;51830;-81
2024/03/27 20:47:49;;;;;;;14.83;5.83;;;;;;;21.25;47.48;97988.09;2329829;75;51479;-81
2024/03/27 20:50:51;;;;;;;21.62;6.15;;;;;;;21.27;47.37;97989.16;2354505;75;51394;-81
2024/03/27 20:53:53;;;;;;;18.15;5.78;;;;;;;21.27;47.28;97982.44;2354580;75;51400;-80
2024/03/27 20:56:55;;;;;;;14.95;5.53;;;;;;;21.27;47.20;97974.37;2329063;75;51446;-80
2024/03/27 20:59:58;;;;;;;23.73;5.58;;;;;;;21.26;47.17;97970.08;2330282;75;51403;-81
2024/03/27 21:03:03;;;;;;;13.75;5.40;;;;;;;21.25;47.22;97968.47;2329734;75;51657;-81
2024/03/27 21:06:05;;;;;;;15.53;4.95;;;;;;;21.22;47.23;97968.98;2306454;75;50649;-80
2024/03/27 21:09:11;;;;;;;17.23;5.60;;;;;;;21.20;47.25;97973.30;2285327;77;50676;-81
2024/03/27 21:12:13;;;;;;;13.90;5.22;;;;;;;21.20;47.25;97976.53;2277307;76;50992;-81
2024/03/27 21:15:15;;;;;;;14.85;5.85;;;;;;;21.18;47.26;97974.63;2302746;77;50586;-80
2024/03/27 21:18:17;;;;;;;18.67;6.65;;;;;;;21.18;47.23;97974.09;2272063;74;50513;-80
2024/03/27 21:21:20;;;;;;;14.50;6.05;;;;;;;21.18;47.23;97970.60;2381060;74;50610;-80
2024/03/27 21:24:22;;;;;;;17.50;5.08;;;;;;;21.18;47.21;97963.88;2367288;74;51393;-81
2024/03/27 21:27:24;;;;;;;15.18;5.47;;;;;;;21.14;47.22;97947.99;2342752;74;49864;-80
2024/03/27 21:30:26;;;;;;;11.85;4.83;;;;;;;21.15;47.28;97944.25;2381427;74;52306;-80
2024/03/27 21:33:29;;;;;;;14.98;5.00;;;;;;;21.15;47.38;97952.31;2380773;74;50212;-81
2024/03/27 21:36:31;;;;;;;13.60;4.70;;;;;;;21.17;47.40;97944.77;2343773;74;50015;-81
2024/03/27 21:39:33;;;;;;;19.02;6.00;;;;;;;21.17;47.38;97937.53;2342702;74;49938;-81
2024/03/27 21:42:35;;;;;;;12.85;4.58;;;;;;;21.15;47.40;97934.30;2381763;74;50710;-81
2024/03/27 21:45:39;;;;;;;14.00;5.03;;;;;;;21.15;47.41;97929.45;2381051;74;51516;-81
2024/03/27 21:48:41;;;;;;;10.80;4.47;;;;;;;21.13;47.42;97931.59;2381900;74;50217;-81
2024/03/27 21:51:43;;;;;;;10.30;4.62;;;;;;;21.14;47.40;97923.80;2317482;74;49429;-81
2024/03/27 21:54:45;;;;;;;16.80;4.40;;;;;;;21.12;47.38;97913.32;2382004;74;50628;-82
2024/03/27 21:57:48;;;;;;;9.13;4.40;;;;;;;21.14;47.38;97909.00;2381685;74;52079;-81
2024/03/27 22:00:50;;;;;;;10.65;4.12;;;;;;;21.13;47.37;97914.13;2317937;74;51128;-81
2024/03/27 22:03:52;;;;;;;14.20;4.87;;;;;;;21.13;47.33;97918.16;2382085;74;52169;-81
2024/03/27 22:06:54;;;;;;;16.20;5.15;;;;;;;21.13;47.35;97923.53;2381976;74;52085;-82
2024/03/27 22:09:56;;;;;;;8.95;4.08;;;;;;;21.13;47.33;97915.47;2382168;74;52389;-81
2024/03/27 22:12:59;;;;;;;10.85;4.55;;;;;;;21.10;47.34;97905.51;2344049;74;49854;-82
2024/03/27 22:16:01;;;;;;;11.78;4.65;;;;;;;21.10;47.30;97902.82;2343562;74;49475;-82
2024/03/27 22:19:03;;;;;;;11.93;4.62;;;;;;;21.09;47.32;97903.91;2381744;74;50864;-81
2024/03/27 22:22:05;;;;;;;10.60;4.50;;;;;;;21.10;47.32;97901.47;2381943;74;51702;-82
2024/03/27 22:25:08;;;;;;;8.50;3.87;;;;;;;21.09;47.32;97904.42;2381672;73;50705;-82
2024/03/27 22:28:10;;;;;;;9.90;4.08;;;;;;;21.08;47.30;97895.55;2317899;75;50424;-82
2024/03/27 22:31:12;;;;;;;10.25;4.33;;;;;;;21.08;47.29;97898.23;2333289;75;50271;-81
2024/03/27 22:34:14;;;;;;;10.95;4.75;;;;;;;21.08;47.28;97896.09;2341221;75;50646;-82
2024/03/27 22:37:16;;;;;;;10.03;4.33;;;;;;;21.08;47.25;97892.06;2307067;77;52044;-81
2024/03/27 22:40:19;;;;;;;11.00;4.30;;;;;;;21.07;47.23;97886.42;2267841;75;50834;-81
2024/03/27 22:43:21;;;;;;;10.45;4.72;;;;;;;21.07;47.25;97889.11;2355894;75;51469;-80
2024/03/27 22:46:23;;;;;;;9.18;4.45;;;;;;;21.06;47.22;97885.59;2355707;75;50043;-80
2024/03/27 22:49:25;;;;;;;11.63;4.62;;;;;;;21.06;47.23;97896.34;2292559;76;49414;-80
2024/03/27 22:52:30;;;;;;;10.32;4.00;;;;;;;21.06;47.22;97877.53;2285889;77;50549;-81
2024/03/27 22:55:31;;;;;;;9.33;4.67;;;;;;;21.05;47.20;97875.92;2309771;77;22846;-81
2024/03/27 22:58:33;;;;;;;11.40;4.05;;;;;;;21.05;47.19;97864.38;2285656;77;50621;-81
2024/03/27 23:01:36;;;;;;;10.23;4.33;;;;;;;21.05;47.19;97863.83;2318106;76;50140;-81
2024/03/27 23:04:38;;;;;;;10.28;3.72;;;;;;;21.05;47.20;97865.17;2297833;76;49633;-80
2024/03/27 23:07:46;;;;;;;10.13;4.08;;;;;;;21.04;47.20;97852.81;2329726;76;50713;-80
2024/03/27 23:10:48;;;;;;;11.83;4.10;;;;;;;21.04;47.20;97855.50;2330022;76;52332;-80
2024/03/27 23:13:51;;;;;;;9.98;4.40;;;;;;;21.04;47.20;97839.89;2298463;76;52448;-80
2024/03/27 23:16:53;;;;;;;11.20;4.53;;;;;;;21.03;47.18;97824.30;2330229;76;50270;-81
2024/03/27 23:19:55;;;;;;;9.38;4.25;;;;;;;21.04;47.19;97823.76;2330300;76;50325;-80
2024/03/27 23:22:57;;;;;;;12.10;3.95;;;;;;;21.02;47.16;97824.59;2296909;76;50703;-81
2024/03/27 23:26:00;;;;;;;10.58;4.37;;;;;;;21.02;47.18;97831.31;2330070;76;51455;-80
2024/03/27 23:29:02;;;;;;;7.87;4.20;;;;;;;21.01;47.17;97831.82;2298344;76;52252;-81
2024/03/27 23:32:04;;;;;;;8.18;4.15;;;;;;;21.02;47.16;97825.93;2334787;76;50303;-80
2024/03/27 23:35:08;;;;;;;10.10;4.20;;;;;;;21.02;47.16;97834.00;2277537;76;52342;-80
2024/03/27 23:38:10;;;;;;;7.85;4.10;;;;;;;21.01;47.18;97827.79;2237597;76;50978;-82
2024/03/27 23:41:12;;;;;;;9.75;4.47;;;;;;;21.00;47.17;97832.91;2334948;76;50706;-80
2024/03/27 23:44:15;;;;;;;9.50;4.20;;;;;;;21.00;47.17;97845.00;2334858;74;51426;-81
2024/03/27 23:47:18;;;;;;;10.88;4.72;;;;;;;21.00;47.17;97843.66;2303146;76;50262;-82
2024/03/27 23:50:20;;;;;;;13.00;4.28;;;;;;;21.01;47.16;97844.45;2277624;76;51450;-81
2024/03/27 23:53:22;;;;;;;8.48;4.33;;;;;;;20.99;47.18;97843.91;2272775;74;50951;-80
2024/03/27 23:56:24;;;;;;;10.18;4.53;;;;;;;20.99;47.18;97843.40;2334729;76;50330;-80
2024/03/27 23:59:26;;;;;;;9.73;4.08;;;;;;;20.99;47.20;97827.78;2334746;76;50406;-80
